sensor_id;sensor_type;location;lat;lon;timestamp;P1;durP1;ratioP1;P2;durP2;ratioP2
4313;SDS011;2170;48.794;9.182;2023-12-07T00:56:35;8.37;;;7.30;;
4313;SDS011;2170;48.794;9.182;2023-12-07T01:00:08;8.27;;;7.43;;
4313;SDS011;2170;48.794;9.182;2023-12-07T01:03:18;7.47;;;6.80;;
4313;SDS011;2170;48.794;9.182;2023-12-07T01:06:51;7.43;;;6.73;;
4313;SDS011;2170;48.794;9.182;2023-12-07T01:13:13;7.43;;;6.80;;
4313;SDS011;2170;48.794;9.182;2023-12-07T01:17:17;8.07;;;7.10;;
4313;SDS011;2170;48.794;9.182;2023-12-07T01:19:34;7.23;;;6.60;;
4313;SDS011;2170;48.794;9.182;2023-12-07T01:38:26;8.07;;;7.27;;
4313;SDS011;2170;48.794;9.182;2023-12-07T01:40:24;8.60;;;7.80;;
4313;SDS011;2170;48.794;9.182;2023-12-07T01:49:47;13.83;;;11.43;;
4313;SDS011;2170;48.794;9.182;2023-12-07T01:56:13;9.43;;;8.60;;
4313;SDS011;2170;48.794;9.182;2023-12-07T01:59:27;9.97;;;8.70;;
4313;SDS011;2170;48.794;9.182;2023-12-07T02:02:40;7.60;;;6.90;;
4313;SDS011;2170;48.794;9.182;2023-12-07T02:05:45;8.30;;;7.50;;
4313;SDS011;2170;48.794;9.182;2023-12-07T02:08:50;7.70;;;7.00;;
4313;SDS011;2170;48.794;9.182;2023-12-07T02:12:19;9.43;;;7.80;;
4313;SDS011;2170;48.794;9.182;2023-12-07T02:25:54;8.20;;;7.40;;
4313;SDS011;2170;48.794;9.182;2023-12-07T02:28:50;10.57;;;7.93;;
4313;SDS011;2170;48.794;9.182;2023-12-07T02:36:52;7.93;;;7.13;;
4313;SDS011;2170;48.794;9.182;2023-12-07T02:39:07;7.73;;;7.03;;
4313;SDS011;2170;48.794;9.182;2023-12-07T02:51:36;8.43;;;7.03;;
4313;SDS011;2170;48.794;9.182;2023-12-07T03:04:43;9.10;;;8.23;;
4313;SDS011;2170;48.794;9.182;2023-12-07T03:07:55;9.60;;;8.70;;
4313;SDS011;2170;48.794;9.182;2023-12-07T03:10:51;9.17;;;8.30;;
4313;SDS011;2170;48.794;9.182;2023-12-07T03:13:49;8.80;;;7.90;;
4313;SDS011;2170;48.794;9.182;2023-12-07T03:53:15;10.80;;;9.77;;
4313;SDS011;2170;48.794;9.182;2023-12-07T03:56:24;12.40;;;10.03;;
4313;SDS011;2170;48.794;9.182;2023-12-07T03:59:26;10.67;;;9.60;;
4313;SDS011;2170;48.794;9.182;2023-12-07T04:02:24;13.90;;;11.03;;
4313;SDS011;2170;48.794;9.182;2023-12-07T04:05:12;11.13;;;10.03;;
4313;SDS011;2170;48.794;9.182;2023-12-07T04:08:18;10.73;;;9.63;;
4313;SDS011;2170;48.794;9.182;2023-12-07T04:11:43;9.83;;;8.83;;
4313;SDS011;2170;48.794;9.182;2023-12-07T04:15:26;13.33;;;9.90;;
4313;SDS011;2170;48.794;9.182;2023-12-07T04:18:38;10.93;;;9.60;;
4313;SDS011;2170;48.794;9.182;2023-12-07T04:21:37;10.17;;;9.17;;
4313;SDS011;2170;48.794;9.182;2023-12-07T04:24:43;10.20;;;9.20;;
4313;SDS011;2170;48.794;9.182;2023-12-07T04:27:51;10.30;;;9.27;;
4313;SDS011;2170;48.794;9.182;2023-12-07T04:32:49;11.13;;;10.03;;
4313;SDS011;2170;48.794;9.182;2023-12-07T04:38:19;10.77;;;9.60;;
4313;SDS011;2170;48.794;9.182;2023-12-07T04:44:43;11.10;;;9.80;;
4313;SDS011;2170;48.794;9.182;2023-12-07T04:47:39;10.70;;;9.27;;
4313;SDS011;2170;48.794;9.182;2023-12-07T04:50:40;11.27;;;9.70;;
4313;SDS011;2170;48.794;9.182;2023-12-07T04:57:19;11.73;;;10.27;;
4313;SDS011;2170;48.794;9.182;2023-12-07T05:00:37;11.50;;;10.30;;
4313;SDS011;2170;48.794;9.182;2023-12-07T05:10:21;11.63;;;9.13;;
4313;SDS011;2170;48.794;9.182;2023-12-07T05:17:06;12.73;;;11.47;;
4313;SDS011;2170;48.794;9.182;2023-12-07T05:19:52;11.60;;;10.40;;
4313;SDS011;2170;48.794;9.182;2023-12-07T05:26:40;11.00;;;9.40;;
4313;SDS011;2170;48.794;9.182;2023-12-07T05:42:52;11.90;;;10.17;;
4313;SDS011;2170;48.794;9.182;2023-12-07T05:45:51;11.53;;;9.40;;
4313;SDS011;2170;48.794;9.182;2023-12-07T05:49:05;11.27;;;10.10;;
4313;SDS011;2170;48.794;9.182;2023-12-07T05:52:49;10.23;;;9.30;;
4313;SDS011;2170;48.794;9.182;2023-12-07T05:55:12;14.40;;;10.17;;
4313;SDS011;2170;48.794;9.182;2023-12-07T06:01:41;12.47;;;11.17;;
4313;SDS011;2170;48.794;9.182;2023-12-07T06:04:47;12.47;;;11.17;;
4313;SDS011;2170;48.794;9.182;2023-12-07T06:07:37;11.20;;;10.10;;
4313;SDS011;2170;48.794;9.182;2023-12-07T06:11:14;13.97;;;10.37;;
4313;SDS011;2170;48.794;9.182;2023-12-07T06:14:13;11.33;;;10.20;;
4313;SDS011;2170;48.794;9.182;2023-12-07T06:17:30;11.50;;;10.40;;
4313;SDS011;2170;48.794;9.182;2023-12-07T06:23:57;13.57;;;10.90;;
4313;SDS011;2170;48.794;9.182;2023-12-07T06:26:49;10.97;;;9.73;;
4313;SDS011;2170;48.794;9.182;2023-12-07T06:34:18;12.83;;;10.80;;
4313;SDS011;2170;48.794;9.182;2023-12-07T06:46:20;14.40;;;12.00;;
4313;SDS011;2170;48.794;9.182;2023-12-07T07:05:18;15.00;;;11.70;;
4313;SDS011;2170;48.794;9.182;2023-12-07T07:08:16;13.53;;;11.50;;
4313;SDS011;2170;48.794;9.182;2023-12-07T07:12:11;13.07;;;11.13;;
4313;SDS011;2170;48.794;9.182;2023-12-07T07:14:24;16.70;;;11.60;;
4313;SDS011;2170;48.794;9.182;2023-12-07T07:17:28;15.17;;;12.50;;
4313;SDS011;2170;48.794;9.182;2023-12-07T07:23:49;16.93;;;11.63;;
4313;SDS011;2170;48.794;9.182;2023-12-07T07:26:41;14.80;;;12.43;;
4313;SDS011;2170;48.794;9.182;2023-12-07T07:29:53;13.07;;;11.83;;
4313;SDS011;2170;48.794;9.182;2023-12-07T07:32:46;17.27;;;12.53;;
4313;SDS011;2170;48.794;9.182;2023-12-07T07:35:34;15.93;;;12.20;;
4313;SDS011;2170;48.794;9.182;2023-12-07T07:38:32;15.00;;;12.60;;
4313;SDS011;2170;48.794;9.182;2023-12-07T07:41:57;18.87;;;12.97;;
4313;SDS011;2170;48.794;9.182;2023-12-07T07:44:56;17.77;;;12.63;;
4313;SDS011;2170;48.794;9.182;2023-12-07T07:48:04;16.00;;;13.03;;
4313;SDS011;2170;48.794;9.182;2023-12-07T07:50:52;14.03;;;12.53;;
4313;SDS011;2170;48.794;9.182;2023-12-07T07:53:48;16.57;;;12.77;;
4313;SDS011;2170;48.794;9.182;2023-12-07T07:57:31;14.13;;;12.33;;
4313;SDS011;2170;48.794;9.182;2023-12-07T08:00:55;17.40;;;13.50;;
4313;SDS011;2170;48.794;9.182;2023-12-07T08:03:59;14.30;;;12.43;;
4313;SDS011;2170;48.794;9.182;2023-12-07T08:06:54;16.13;;;14.07;;
4313;SDS011;2170;48.794;9.182;2023-12-07T08:09:56;14.63;;;12.50;;
4313;SDS011;2170;48.794;9.182;2023-12-07T08:13:15;16.13;;;12.63;;
4313;SDS011;2170;48.794;9.182;2023-12-07T08:30:37;16.80;;;14.07;;
4313;SDS011;2170;48.794;9.182;2023-12-07T08:33:25;17.50;;;12.20;;
4313;SDS011;2170;48.794;9.182;2023-12-07T08:36:25;13.30;;;11.90;;
4313;SDS011;2170;48.794;9.182;2023-12-07T08:39:37;14.70;;;13.03;;
4313;SDS011;2170;48.794;9.182;2023-12-07T08:42:36;15.90;;;13.30;;
4313;SDS011;2170;48.794;9.182;2023-12-07T08:45:31;15.70;;;13.83;;
4313;SDS011;2170;48.794;9.182;2023-12-07T08:48:35;12.87;;;11.57;;
4313;SDS011;2170;48.794;9.182;2023-12-07T08:51:24;14.20;;;12.20;;
4313;SDS011;2170;48.794;9.182;2023-12-07T08:54:15;14.00;;;12.70;;
4313;SDS011;2170;48.794;9.182;2023-12-07T08:56:58;15.43;;;13.00;;
4313;SDS011;2170;48.794;9.182;2023-12-07T08:59:56;13.60;;;12.20;;
4313;SDS011;2170;48.794;9.182;2023-12-07T09:06:20;14.53;;;13.13;;
4313;SDS011;2170;48.794;9.182;2023-12-07T09:12:28;17.70;;;15.30;;
4313;SDS011;2170;48.794;9.182;2023-12-07T09:15:43;14.97;;;13.47;;
4313;SDS011;2170;48.794;9.182;2023-12-07T09:18:36;16.57;;;13.90;;
4313;SDS011;2170;48.794;9.182;2023-12-07T09:28:19;17.30;;;14.87;;
4313;SDS011;2170;48.794;9.182;2023-12-07T09:34:54;16.03;;;13.70;;
4313;SDS011;2170;48.794;9.182;2023-12-07T09:37:47;15.17;;;13.67;;
4313;SDS011;2170;48.794;9.182;2023-12-07T09:44:17;14.53;;;13.00;;
4313;SDS011;2170;48.794;9.182;2023-12-07T09:47:22;19.03;;;14.60;;
4313;SDS011;2170;48.794;9.182;2023-12-07T10:14:00;13.03;;;11.83;;
4313;SDS011;2170;48.794;9.182;2023-12-07T10:17:00;13.30;;;11.90;;
4313;SDS011;2170;48.794;9.182;2023-12-07T10:20:19;12.53;;;11.30;;
4313;SDS011;2170;48.794;9.182;2023-12-07T10:23:17;25.37;;;13.00;;
4313;SDS011;2170;48.794;9.182;2023-12-07T10:33:35;12.53;;;11.23;;
4313;SDS011;2170;48.794;9.182;2023-12-07T10:39:58;12.10;;;11.00;;
4313;SDS011;2170;48.794;9.182;2023-12-07T10:42:59;12.57;;;11.30;;
4313;SDS011;2170;48.794;9.182;2023-12-07T10:46:19;12.00;;;10.60;;
4313;SDS011;2170;48.794;9.182;2023-12-07T11:57:27;8.87;;;8.07;;
4313;SDS011;2170;48.794;9.182;2023-12-07T12:10:53;11.33;;;7.07;;
4313;SDS011;2170;48.794;9.182;2023-12-07T12:14:01;7.13;;;6.23;;
4313;SDS011;2170;48.794;9.182;2023-12-07T12:16:47;6.70;;;6.00;;
4313;SDS011;2170;48.794;9.182;2023-12-07T12:22:12;7.80;;;7.10;;
4313;SDS011;2170;48.794;9.182;2023-12-07T12:29:23;9.33;;;7.50;;
4313;SDS011;2170;48.794;9.182;2023-12-07T12:32:17;9.07;;;6.80;;
4313;SDS011;2170;48.794;9.182;2023-12-07T12:34:57;7.70;;;6.97;;
4313;SDS011;2170;48.794;9.182;2023-12-07T12:38:12;6.67;;;6.00;;
4313;SDS011;2170;48.794;9.182;2023-12-07T12:41:03;7.67;;;6.97;;
4313;SDS011;2170;48.794;9.182;2023-12-07T12:44:03;7.10;;;6.50;;
4313;SDS011;2170;48.794;9.182;2023-12-07T12:47:05;7.03;;;6.33;;
4313;SDS011;2170;48.794;9.182;2023-12-07T12:49:59;7.30;;;6.60;;
4313;SDS011;2170;48.794;9.182;2023-12-07T12:52:39;7.97;;;6.60;;
4313;SDS011;2170;48.794;9.182;2023-12-07T12:55:20;7.40;;;6.80;;
4313;SDS011;2170;48.794;9.182;2023-12-07T12:58:23;7.20;;;6.60;;
4313;SDS011;2170;48.794;9.182;2023-12-07T13:01:06;6.80;;;6.20;;
4313;SDS011;2170;48.794;9.182;2023-12-07T13:06:50;7.90;;;7.23;;
4313;SDS011;2170;48.794;9.182;2023-12-07T13:09:29;6.77;;;6.23;;
4313;SDS011;2170;48.794;9.182;2023-12-07T13:12:34;7.50;;;6.83;;
4313;SDS011;2170;48.794;9.182;2023-12-07T13:15:12;7.90;;;7.10;;
4313;SDS011;2170;48.794;9.182;2023-12-07T13:17:49;9.30;;;6.73;;
4313;SDS011;2170;48.794;9.182;2023-12-07T13:20:29;6.57;;;6.00;;
4313;SDS011;2170;48.794;9.182;2023-12-07T13:23:21;7.17;;;6.47;;
4313;SDS011;2170;48.794;9.182;2023-12-07T13:26:10;6.90;;;6.30;;
4313;SDS011;2170;48.794;9.182;2023-12-07T13:29:01;8.03;;;5.93;;
4313;SDS011;2170;48.794;9.182;2023-12-07T13:32:01;7.10;;;6.50;;
4313;SDS011;2170;48.794;9.182;2023-12-07T13:34:56;8.03;;;6.60;;
4313;SDS011;2170;48.794;9.182;2023-12-07T13:40:53;6.80;;;6.20;;
4313;SDS011;2170;48.794;9.182;2023-12-07T13:43:39;7.37;;;6.60;;
4313;SDS011;2170;48.794;9.182;2023-12-07T13:46:32;6.93;;;6.37;;
4313;SDS011;2170;48.794;9.182;2023-12-07T13:49:25;6.87;;;6.30;;
4313;SDS011;2170;48.794;9.182;2023-12-07T13:52:18;9.37;;;8.47;;
4313;SDS011;2170;48.794;9.182;2023-12-07T13:55:28;8.43;;;7.63;;
4313;SDS011;2170;48.794;9.182;2023-12-07T13:58:04;7.43;;;6.73;;
4313;SDS011;2170;48.794;9.182;2023-12-07T14:00:36;7.10;;;6.40;;
4313;SDS011;2170;48.794;9.182;2023-12-07T14:03:05;10.57;;;6.73;;
4313;SDS011;2170;48.794;9.182;2023-12-07T14:05:53;13.40;;;6.67;;
4313;SDS011;2170;48.794;9.182;2023-12-07T14:08:44;6.43;;;5.83;;
4313;SDS011;2170;48.794;9.182;2023-12-07T14:11:39;7.20;;;5.90;;
4313;SDS011;2170;48.794;9.182;2023-12-07T14:14:08;5.20;;;4.80;;
4313;SDS011;2170;48.794;9.182;2023-12-07T14:16:44;4.33;;;4.03;;
4313;SDS011;2170;48.794;9.182;2023-12-07T14:19:42;3.40;;;3.20;;
4313;SDS011;2170;48.794;9.182;2023-12-07T14:22:38;3.63;;;3.33;;
4313;SDS011;2170;48.794;9.182;2023-12-07T14:25:30;3.20;;;2.90;;
4313;SDS011;2170;48.794;9.182;2023-12-07T14:36:46;2.50;;;2.30;;
4313;SDS011;2170;48.794;9.182;2023-12-07T14:39:19;3.00;;;2.70;;
4313;SDS011;2170;48.794;9.182;2023-12-07T14:41:52;3.07;;;2.77;;
4313;SDS011;2170;48.794;9.182;2023-12-07T14:44:28;3.60;;;3.30;;
4313;SDS011;2170;48.794;9.182;2023-12-07T14:47:05;2.70;;;2.50;;
4313;SDS011;2170;48.794;9.182;2023-12-07T14:49:59;11.53;;;10.30;;
4313;SDS011;2170;48.794;9.182;2023-12-07T14:52:29;3.80;;;3.57;;
4313;SDS011;2170;48.794;9.182;2023-12-07T14:55:00;2.97;;;2.77;;
4313;SDS011;2170;48.794;9.182;2023-12-07T14:57:29;3.20;;;3.00;;
4313;SDS011;2170;48.794;9.182;2023-12-07T15:00:09;3.00;;;2.80;;
4313;SDS011;2170;48.794;9.182;2023-12-07T15:03:08;6.23;;;3.30;;
4313;SDS011;2170;48.794;9.182;2023-12-07T15:06:23;3.27;;;3.00;;
4313;SDS011;2170;48.794;9.182;2023-12-07T15:09:35;3.83;;;3.30;;
4313;SDS011;2170;48.794;9.182;2023-12-07T15:23:11;6.50;;;3.30;;
4313;SDS011;2170;48.794;9.182;2023-12-07T15:26:10;5.43;;;5.00;;
4313;SDS011;2170;48.794;9.182;2023-12-07T15:35:46;4.77;;;4.17;;
4313;SDS011;2170;48.794;9.182;2023-12-07T15:38:49;4.63;;;4.23;;
4313;SDS011;2170;48.794;9.182;2023-12-07T15:45:10;7.80;;;5.00;;
4313;SDS011;2170;48.794;9.182;2023-12-07T15:48:12;8.07;;;6.80;;
4313;SDS011;2170;48.794;9.182;2023-12-07T15:54:36;10.40;;;9.40;;
4313;SDS011;2170;48.794;9.182;2023-12-07T16:17:23;13.10;;;6.23;;
4313;SDS011;2170;48.794;9.182;2023-12-07T16:20:41;5.97;;;5.57;;
4313;SDS011;2170;48.794;9.182;2023-12-07T16:24:01;6.90;;;5.90;;
4313;SDS011;2170;48.794;9.182;2023-12-07T16:30:11;7.43;;;6.00;;
4313;SDS011;2170;48.794;9.182;2023-12-07T16:33:06;6.27;;;5.67;;
4313;SDS011;2170;48.794;9.182;2023-12-07T16:36:02;5.93;;;5.43;;
4313;SDS011;2170;48.794;9.182;2023-12-07T16:39:07;7.50;;;6.80;;
4313;SDS011;2170;48.794;9.182;2023-12-07T16:41:59;7.10;;;6.40;;
4313;SDS011;2170;48.794;9.182;2023-12-07T16:44:57;7.57;;;6.87;;
4313;SDS011;2170;48.794;9.182;2023-12-07T16:47:46;7.67;;;6.87;;
4313;SDS011;2170;48.794;9.182;2023-12-07T16:54:48;9.13;;;7.23;;
4313;SDS011;2170;48.794;9.182;2023-12-07T16:58:17;8.83;;;7.93;;
4313;SDS011;2170;48.794;9.182;2023-12-07T17:32:41;12.17;;;10.87;;
4313;SDS011;2170;48.794;9.182;2023-12-07T17:35:47;12.07;;;10.57;;
4313;SDS011;2170;48.794;9.182;2023-12-07T17:42:14;11.97;;;9.80;;
4313;SDS011;2170;48.794;9.182;2023-12-07T18:56:41;11.90;;;10.87;;
4313;SDS011;2170;48.794;9.182;2023-12-07T18:59:48;11.03;;;9.93;;
4313;SDS011;2170;48.794;9.182;2023-12-07T19:02:47;11.33;;;9.90;;
4313;SDS011;2170;48.794;9.182;2023-12-07T19:05:48;12.63;;;10.23;;
4313;SDS011;2170;48.794;9.182;2023-12-07T19:08:57;11.50;;;10.23;;
4313;SDS011;2170;48.794;9.182;2023-12-07T19:11:53;13.03;;;10.50;;
4313;SDS011;2170;48.794;9.182;2023-12-07T19:33:39;11.00;;;9.53;;
4313;SDS011;2170;48.794;9.182;2023-12-07T19:36:32;11.97;;;10.33;;
4313;SDS011;2170;48.794;9.182;2023-12-07T19:40:02;10.80;;;9.80;;
4313;SDS011;2170;48.794;9.182;2023-12-07T19:43:58;10.00;;;9.00;;
4313;SDS011;2170;48.794;9.182;2023-12-07T19:46:32;11.70;;;10.50;;
4313;SDS011;2170;48.794;9.182;2023-12-07T20:07:00;12.33;;;10.97;;
4313;SDS011;2170;48.794;9.182;2023-12-07T20:20:09;14.37;;;11.40;;
4313;SDS011;2170;48.794;9.182;2023-12-07T21:19:29;12.07;;;9.00;;
4313;SDS011;2170;48.794;9.182;2023-12-07T21:29:17;10.30;;;9.30;;
4313;SDS011;2170;48.794;9.182;2023-12-07T21:35:34;10.17;;;8.70;;
4313;SDS011;2170;48.794;9.182;2023-12-07T22:08:42;14.00;;;9.90;;
4313;SDS011;2170;48.794;9.182;2023-12-07T22:18:46;11.67;;;10.40;;
4313;SDS011;2170;48.794;9.182;2023-12-07T22:22:00;12.70;;;9.77;;
4313;SDS011;2170;48.794;9.182;2023-12-07T22:28:10;12.70;;;10.70;;
4313;SDS011;2170;48.794;9.182;2023-12-07T22:31:33;11.93;;;10.67;;
4313;SDS011;2170;48.794;9.182;2023-12-07T22:38:20;11.53;;;10.30;;
4313;SDS011;2170;48.794;9.182;2023-12-07T22:41:34;11.63;;;10.30;;
4313;SDS011;2170;48.794;9.182;2023-12-07T22:44:38;12.80;;;10.93;;
4313;SDS011;2170;48.794;9.182;2023-12-07T22:47:29;11.17;;;9.80;;
4313;SDS011;2170;48.794;9.182;2023-12-07T22:50:10;12.73;;;10.37;;
4313;SDS011;2170;48.794;9.182;2023-12-07T22:52:54;12.97;;;11.70;;
4313;SDS011;2170;48.794;9.182;2023-12-07T23:06:39;11.50;;;10.30;;
4313;SDS011;2170;48.794;9.182;2023-12-07T23:10:14;12.03;;;10.10;;
4313;SDS011;2170;48.794;9.182;2023-12-07T23:13:18;11.80;;;10.60;;
4313;SDS011;2170;48.794;9.182;2023-12-07T23:16:06;12.17;;;9.83;;
4313;SDS011;2170;48.794;9.182;2023-12-07T23:19:07;12.50;;;10.53;;
4313;SDS011;2170;48.794;9.182;2023-12-07T23:22:06;12.27;;;10.97;;
4313;SDS011;2170;48.794;9.182;2023-12-07T23:25:20;11.63;;;9.50;;
4313;SDS011;2170;48.794;9.182;2023-12-07T23:28:26;11.23;;;10.07;;
4313;SDS011;2170;48.794;9.182;2023-12-07T23:33:50;11.97;;;10.70;;
4313;SDS011;2170;48.794;9.182;2023-12-07T23:35:01;12.27;;;10.70;;
4313;SDS011;2170;48.794;9.182;2023-12-07T23:37:47;11.03;;;9.90;;
4313;SDS011;2170;48.794;9.182;2023-12-07T23:40:42;11.60;;;10.50;;
4313;SDS011;2170;48.794;9.182;2023-12-07T23:44:04;13.73;;;11.93;;
4313;SDS011;2170;48.794;9.182;2023-12-07T23:47:03;13.57;;;10.87;;
4313;SDS011;2170;48.794;9.182;2023-12-07T23:53:38;13.10;;;9.90;;
4313;SDS011;2170;48.794;9.182;2023-12-07T23:56:48;14.70;;;11.47;;
